Impacts METAR Board
IDs:

KLGA - New York/La Guardia, NY, US

Updated at: 2100 UTC 20 Jun 2019
Potential Impact None Slight Moderate High
Time 20/09Z 20/10Z 20/11Z 20/12Z 20/13Z 20/14Z 20/15Z 20/16Z 20/17Z 20/18Z 20/19Z 20/20Z 20/21Z
Temp63 62 63 63 64 64 65 66 72 75 78 73 72
Dewpt63 62 63 63 64 64 65 66 70 70 72 71 70
Altim29.67 29.67 29.66 29.65 29.63 29.63 29.62 29.60 29.57 29.54 29.51 29.51 29.48
VIS0.25 0.25 0.25 0.25 0.25 0.25 1 2.5 5 7 10 2.5 1.5
CIG2 2 2 2 2 2 3 5 6 10 50 21 29
CoverOVCOVXOVXOVXOVXOVXOVCOVCOVCBKNBKNOVCOVC
FltCatLIFRLIFRLIFRLIFRLIFRLIFRLIFRIFRIFRMVFRVFRIFRIFR
WXBR-DZ FG-RA FGFGFGFG-DZ BRBRBR-----TSRA BR+RA BR
WDir40404060606050015015015020090
WSpd9 7 7 6 5 8 5 3 9 9 8 5 7
WGst-- -- -- -- -- -- -- -- -- -- -- -- --
Raw hourly METARs
KLGA 200851Z 04009KT 1/4SM R04/6000VP6000FT BR OVC002 17/17 A2967 RMK AO2 SFC VIS 3/4 RAE12 SLP046 P0000 60001 T01720172 58017
KLGA 200951Z 04007KT 1/4SM R04/3000V3500FT -DZ FG VV002 17/17 A2967 RMK AO2 SFC VIS 1/2 DZB46 SLP048 P0000 T01670167
KLGA 201051Z 04007KT 1/4SM R04/5000VP6000FT -RA FG VV002 17/17 A2966 RMK AO2 SFC VIS 1/2 DZE0959RAB0959 SLP043 P0002 T01720172
KLGA 201151Z 06006KT 1/4SM R04/2200V3500FT FG VV002 17/17 A2965 RMK AO2 SFC VIS 1/2 RAE07 SLP041 P0000 60003 70009 T01720172 10178 20167 58005
KLGA 201251Z 06005KT 1/4SM R04/P6000FT FG VV002 18/18 A2963 RMK AO2 SFC VIS 1/2 SLP033 T01780178
KLGA 201351Z 06008KT 1/4SM R04/2600V3500FT FG VV002 18/18 A2963 RMK AO2 SFC VIS 1/2 SLP034 T01780178
KLGA 201451Z 05005KT 1SM R04/P6000FT -DZ BR OVC003 18/18 A2962 RMK AO2 SFC VIS 1 1/2 RAB33E51DZB51 SLP028 P0000 60000 T01830183 56013
KLGA 201551Z VRB03KT 2 1/2SM BR OVC005 19/19 A2960 RMK AO2 DZE46 SLP023 P0000 T01890189
KLGA 201651Z 15009KT 5SM BR OVC006 22/21 A2957 RMK AO2 SLP012 T02220211
KLGA 201751Z 15009KT 7SM BKN010 BKN050 BKN090 24/21 A2954 RMK AO2 SLP002 60000 T02390211 10244 20172 58026
KLGA 201851Z 15008KT 10SM SCT010 BKN050 BKN250 26/22 A2951 RMK AO2 SLP993 T02560222
KLGA 201958Z 20005KT 2 1/2SM -TSRA BR SCT007 BKN021CB OVC100 23/22 A2951 RMK AO2 SFC VIS 3 OCNL LTGICCG OHD TS OHD MOV NE P0001 T02280217
KLGA 202054Z 09007KT 1 1/2SM R04/3500VP6000FT +RA BR BKN029 BKN044 OVC110 22/21 A2948 RMK AO2 TWR VIS 2 LTG DSNT S AND SW TSE54 P0010 T02220211



Page loaded:  21:09 UTC  |   02:09 PM Pacific  |   03:09 PM Mountain  |   04:09 PM Central  |   05:09 PM Eastern

 

ADVISORIES

FORECASTS

FORECASTS

OBSERVATIONS

USER TOOLS

ABOUT US